createdAt,value
2023-03-16T00:00:13.938Z,1.23
2023-03-16T00:02:42.663Z,1.23
2023-03-16T00:05:12.869Z,1.04
2023-03-16T00:07:43.489Z,1.08
2023-03-16T00:10:13.733Z,1.09
2023-03-16T00:12:43.784Z,1.17
2023-03-16T00:15:13.203Z,1.03
2023-03-16T00:17:41.726Z,1.07
2023-03-16T00:20:12.479Z,1.03
2023-03-16T00:22:41.921Z,1.02
2023-03-16T00:25:15.283Z,1.02
2023-03-16T00:27:43.677Z,1.06
2023-03-16T00:30:14.107Z,0.94
2023-03-16T00:32:42.903Z,1.02
2023-03-16T00:35:11.444Z,0.93
2023-03-16T00:37:40.029Z,0.93
2023-03-16T00:40:13.674Z,0.94
2023-03-16T00:42:42.040Z,0.93
2023-03-16T00:45:12.123Z,0.78
2023-03-16T00:47:42.204Z,0.84
2023-03-16T00:50:11.851Z,0.87
2023-03-16T00:52:40.261Z,0.87
2023-03-16T00:55:09.525Z,0.84
2023-03-16T00:57:39.464Z,0.77
2023-03-16T01:00:15.146Z,0.75
2023-03-16T01:02:45.311Z,0.76
2023-03-16T01:05:15.453Z,0.80
2023-03-16T01:07:45.221Z,0.70
2023-03-16T01:10:14.538Z,0.75
2023-03-16T01:12:45.376Z,0.72
2023-03-16T01:15:13.850Z,0.63
2023-03-16T01:17:42.218Z,0.67
2023-03-16T01:20:15.559Z,0.58
2023-03-16T01:22:44.306Z,0.64
2023-03-16T01:25:14.718Z,0.66
2023-03-16T01:27:44.906Z,0.67
2023-03-16T01:30:14.306Z,0.71
2023-03-16T01:32:43.385Z,0.57
2023-03-16T01:35:14.815Z,0.69
2023-03-16T01:37:43.223Z,0.62
2023-03-16T01:40:17.298Z,0.63
2023-03-16T01:43:01.552Z,0.46
2023-03-16T01:46:18.245Z,0.55
2023-03-16T01:49:13.385Z,0.55
2023-03-16T01:51:45.421Z,0.47
2023-03-16T01:54:23.157Z,0.29
2023-03-16T01:57:00.798Z,0.48
2023-03-16T01:59:35.020Z,0.48
2023-03-16T02:02:04.747Z,0.47
2023-03-16T02:04:46.744Z,0.51
2023-03-16T02:07:20.719Z,0.53
2023-03-16T02:09:54.016Z,0.42
2023-03-16T02:12:23.260Z,0.39
2023-03-16T02:14:58.035Z,0.30
2023-03-16T02:17:29.802Z,0.41
2023-03-16T02:20:16.813Z,0.41
2023-03-16T02:22:49.745Z,0.41
2023-03-16T02:25:20.535Z,0.43
2023-03-16T02:27:59.202Z,0.25
2023-03-16T02:30:29.763Z,0.30
2023-03-16T02:33:02.621Z,0.32
2023-03-16T02:35:31.281Z,0.31
2023-03-16T02:38:00.167Z,0.14
2023-03-16T02:40:35.692Z,0.01
2023-03-16T02:43:12.511Z,-0.11
2023-03-16T02:45:52.259Z,-0.03
2023-03-16T02:48:27.784Z,-0.05
2023-03-16T02:50:56.626Z,-0.04
2023-03-16T02:53:25.442Z,0.04
2023-03-16T02:55:54.206Z,0.12
2023-03-16T02:58:22.572Z,0.11
2023-03-16T03:00:52.384Z,0.11
2023-03-16T03:03:20.862Z,0.19
2023-03-16T03:05:49.448Z,0.19
2023-03-16T03:08:20.391Z,0.14
2023-03-16T03:10:49.197Z,0.17
2023-03-16T03:13:17.668Z,0.07
2023-03-16T03:15:46.394Z,0.01
2023-03-16T03:18:16.264Z,-0.01
2023-03-16T03:20:44.622Z,0.04
2023-03-16T03:23:12.998Z,0.00
2023-03-16T03:25:43.115Z,-0.06
2023-03-16T03:28:12.079Z,0.04
2023-03-16T03:30:40.773Z,0.07
2023-03-16T03:33:09.329Z,0.03
2023-03-16T03:35:39.111Z,0.02
2023-03-16T03:38:08.170Z,-0.17
2023-03-16T03:40:37.418Z,-0.20
2023-03-16T03:43:06.477Z,-0.22
2023-03-16T03:45:39.439Z,-0.29
2023-03-16T03:48:08.350Z,-0.28
2023-03-16T03:50:40.580Z,-0.18
2023-03-16T03:53:23.730Z,-0.10
2023-03-16T03:56:12.013Z,-0.08
2023-03-16T03:58:41.009Z,-0.20
2023-03-16T04:01:09.732Z,-0.11
2023-03-16T04:03:38.165Z,-0.19
2023-03-16T04:06:10.181Z,-0.09
2023-03-16T04:08:38.531Z,-0.14
2023-03-16T04:11:11.941Z,-0.16
2023-03-16T04:13:41.314Z,-0.26
2023-03-16T04:16:11.266Z,-0.22
2023-03-16T04:18:46.596Z,-0.25
2023-03-16T04:21:18.735Z,-0.07
2023-03-16T04:23:49.082Z,-0.06
2023-03-16T04:26:18.061Z,-0.07
2023-03-16T04:28:48.884Z,-0.05
2023-03-16T04:31:20.351Z,-0.14
2023-03-16T04:33:49.706Z,-0.11
2023-03-16T04:36:19.825Z,-0.15
2023-03-16T04:38:49.141Z,-0.11
2023-03-16T04:41:17.769Z,-0.03
2023-03-16T04:43:55.153Z,-0.05
2023-03-16T04:46:26.841Z,-0.05
2023-03-16T04:48:58.463Z,-0.08
2023-03-16T04:51:30.094Z,-0.18
2023-03-16T04:54:06.844Z,-0.21
2023-03-16T04:56:37.483Z,-0.24
2023-03-16T04:59:10.980Z,-0.17
2023-03-16T05:02:08.775Z,-0.17
2023-03-16T05:04:38.564Z,-0.11
2023-03-16T05:07:11.731Z,-0.06
2023-03-16T05:09:44.052Z,-0.04
2023-03-16T05:12:13.083Z,-0.07
2023-03-16T05:14:41.818Z,-0.07
2023-03-16T05:17:30.476Z,-0.14
2023-03-16T05:19:58.818Z,-0.15
2023-03-16T05:22:29.564Z,-0.18
2023-03-16T05:25:15.482Z,-0.22
2023-03-16T05:27:49.761Z,-0.18
2023-03-16T05:30:25.262Z,-0.18
2023-03-16T05:32:57.913Z,-0.09
2023-03-16T05:35:28.154Z,-0.06
2023-03-16T05:38:02.688Z,-0.10
2023-03-16T05:40:33.178Z,-0.07
2023-03-16T05:43:18.427Z,-0.15
2023-03-16T05:45:51.624Z,-0.25
2023-03-16T05:48:21.432Z,-0.21
2023-03-16T05:50:55.577Z,-0.09
2023-03-16T05:53:30.287Z,-0.11
2023-03-16T05:56:07.289Z,-0.20
2023-03-16T05:58:40.057Z,-0.19
2023-03-16T06:01:11.248Z,-0.07
2023-03-16T06:03:39.880Z,-0.15
2023-03-16T06:06:10.392Z,-0.03
2023-03-16T06:08:51.229Z,-0.10
2023-03-16T06:11:21.614Z,-0.14
2023-03-16T06:13:50.110Z,-0.14
2023-03-16T06:16:19.038Z,-0.05
2023-03-16T06:18:47.453Z,-0.03
2023-03-16T06:21:15.911Z,0.01
2023-03-16T06:23:44.536Z,0.03
2023-03-16T06:26:14.941Z,0.02
2023-03-16T06:28:45.919Z,0.02
2023-03-16T06:31:14.301Z,0.06
2023-03-16T06:33:45.953Z,0.13
2023-03-16T06:36:15.069Z,0.17
2023-03-16T06:38:48.371Z,0.27
2023-03-16T06:41:26.143Z,0.32
2023-03-16T06:43:54.496Z,0.39
2023-03-16T06:46:22.952Z,0.44
2023-03-16T06:48:51.750Z,0.60
2023-03-16T06:51:20.966Z,0.62
2023-03-16T06:53:51.226Z,0.61
2023-03-16T06:56:20.204Z,0.71
2023-03-16T06:58:50.304Z,0.77
2023-03-16T07:01:18.771Z,0.90
2023-03-16T07:03:47.303Z,0.98
2023-03-16T07:06:21.413Z,1.08
2023-03-16T07:08:49.758Z,1.28
2023-03-16T07:11:19.972Z,1.45
2023-03-16T07:13:49.784Z,1.62
2023-03-16T07:16:20.393Z,1.68
2023-03-16T07:18:49.514Z,1.79
2023-03-16T07:21:20.658Z,1.87
2023-03-16T07:23:50.020Z,1.99
2023-03-16T07:26:23.221Z,2.17
2023-03-16T07:28:59.312Z,2.30
2023-03-16T07:31:28.169Z,2.33
2023-03-16T07:33:59.032Z,2.42
2023-03-16T07:36:38.407Z,2.52
2023-03-16T07:39:07.470Z,2.64
2023-03-16T07:41:36.892Z,2.72
2023-03-16T07:44:21.816Z,2.83
2023-03-16T07:46:51.581Z,3.09
2023-03-16T07:49:21.861Z,3.11
2023-03-16T07:51:51.469Z,3.29
2023-03-16T07:54:24.375Z,3.59
2023-03-16T07:56:52.928Z,3.59
2023-03-16T07:59:32.466Z,3.72
2023-03-16T08:02:01.821Z,3.78
2023-03-16T08:04:31.228Z,3.77
2023-03-16T08:07:02.273Z,3.80
2023-03-16T08:09:44.385Z,4.25
2023-03-16T08:12:16.979Z,5.16
2023-03-16T08:14:46.905Z,5.91
2023-03-16T08:17:22.674Z,6.27
2023-03-16T08:19:51.621Z,6.42
2023-03-16T08:22:22.173Z,6.38
2023-03-16T08:24:51.985Z,6.90
2023-03-16T08:27:22.156Z,7.02
2023-03-16T08:29:56.806Z,7.52
2023-03-16T08:32:28.476Z,7.56
2023-03-16T08:34:57.197Z,7.90
2023-03-16T08:37:25.665Z,8.36
2023-03-16T08:39:55.645Z,8.70
2023-03-16T08:42:25.333Z,8.93
2023-03-16T08:45:01.068Z,9.65
2023-03-16T08:47:31.459Z,9.80
2023-03-16T08:50:01.209Z,9.61
2023-03-16T08:52:29.547Z,9.55
2023-03-16T08:55:03.406Z,9.78
2023-03-16T08:57:32.856Z,9.64
2023-03-16T09:00:04.226Z,10.33
2023-03-16T09:02:33.204Z,9.44
2023-03-16T09:05:01.572Z,8.62
2023-03-16T09:07:29.932Z,8.74
2023-03-16T09:09:58.355Z,9.00
2023-03-16T09:12:27.227Z,9.56
2023-03-16T09:14:56.130Z,9.99
2023-03-16T09:17:25.978Z,10.36
2023-03-16T09:19:57.731Z,10.22
2023-03-16T09:22:31.542Z,10.57
2023-03-16T09:25:00.153Z,10.93
2023-03-16T09:27:28.561Z,11.04
2023-03-16T09:29:57.348Z,11.09
2023-03-16T09:32:27.735Z,10.66
2023-03-16T09:34:56.357Z,10.63
2023-03-16T09:37:24.844Z,10.90
2023-03-16T09:39:57.930Z,11.17
2023-03-16T09:42:36.791Z,11.22
2023-03-16T09:45:16.190Z,11.20
2023-03-16T09:47:49.667Z,10.43
2023-03-16T09:50:24.399Z,8.79
2023-03-16T09:53:02.792Z,8.92
2023-03-16T09:55:34.752Z,9.06
2023-03-16T09:58:08.025Z,9.46
2023-03-16T10:00:41.753Z,9.31
2023-03-16T10:03:32.554Z,9.32
2023-03-16T10:06:05.156Z,9.98
2023-03-16T10:08:40.857Z,10.46
2023-03-16T10:11:26.998Z,10.11
2023-03-16T10:14:02.554Z,10.08
2023-03-16T10:16:38.685Z,10.30
2023-03-16T10:19:17.285Z,10.37
2023-03-16T10:21:45.812Z,10.74
2023-03-16T10:24:27.248Z,11.06
2023-03-16T10:27:00.560Z,11.22
2023-03-16T10:29:31.845Z,11.01
2023-03-16T10:32:09.823Z,11.29
2023-03-16T10:34:39.674Z,10.85
2023-03-16T10:37:11.930Z,10.20
2023-03-16T10:39:43.199Z,9.99
2023-03-16T10:42:18.658Z,9.73
2023-03-16T10:44:47.277Z,9.99
2023-03-16T10:47:24.155Z,10.06
2023-03-16T10:49:53.977Z,9.48
2023-03-16T10:52:31.239Z,9.74
2023-03-16T10:55:02.179Z,9.40
2023-03-16T10:57:34.947Z,9.66
2023-03-16T11:00:14.753Z,10.27
2023-03-16T11:02:44.431Z,10.39
2023-03-16T11:05:21.416Z,10.73
2023-03-16T11:07:50.960Z,10.54
2023-03-16T11:10:30.366Z,10.19
2023-03-16T11:13:05.613Z,9.85
2023-03-16T11:15:48.765Z,9.85
2023-03-16T11:18:30.668Z,10.05
2023-03-16T11:21:07.803Z,9.98
2023-03-16T11:23:48.452Z,10.17
2023-03-16T11:26:25.269Z,10.34
2023-03-16T11:29:02.226Z,10.48
2023-03-16T11:31:42.783Z,11.27
2023-03-16T11:34:19.395Z,10.99
2023-03-16T11:36:56.109Z,10.02
2023-03-16T11:39:41.711Z,10.66
2023-03-16T11:42:31.744Z,10.63
2023-03-16T11:45:11.269Z,9.61
2023-03-16T11:48:17.102Z,9.96
2023-03-16T11:50:59.032Z,10.11
2023-03-16T11:53:45.526Z,10.40
2023-03-16T11:56:25.272Z,11.02
2023-03-16T11:59:32.973Z,10.33
2023-03-16T12:02:37.083Z,10.73
2023-03-16T12:05:38.205Z,11.38
2023-03-16T12:08:25.965Z,11.12
2023-03-16T12:11:02.615Z,11.21
2023-03-16T12:13:52.442Z,11.13
2023-03-16T12:16:26.146Z,10.83
2023-03-16T12:19:01.470Z,10.83
2023-03-16T12:21:33.596Z,10.30
2023-03-16T12:24:04.904Z,10.54
2023-03-16T12:26:39.905Z,10.87
2023-03-16T12:29:21.069Z,10.69
2023-03-16T12:31:55.881Z,10.79
2023-03-16T12:34:32.711Z,10.81
2023-03-16T12:37:20.704Z,10.96
2023-03-16T12:40:27.151Z,11.07
2023-03-16T12:43:12.459Z,10.47
2023-03-16T12:45:48.238Z,10.41
2023-03-16T12:48:27.202Z,10.39
2023-03-16T12:50:58.626Z,10.14
2023-03-16T12:53:42.212Z,10.10
2023-03-16T12:56:13.093Z,10.19
2023-03-16T12:58:47.280Z,10.15
2023-03-16T13:01:19.941Z,10.01
2023-03-16T13:03:50.935Z,9.83
2023-03-16T13:06:23.667Z,9.73
2023-03-16T13:08:59.714Z,9.33
2023-03-16T13:11:29.380Z,9.34
2023-03-16T13:14:12.761Z,9.25
2023-03-16T13:16:41.593Z,9.58
2023-03-16T13:19:30.492Z,9.88
2023-03-16T13:22:06.669Z,9.70
2023-03-16T13:24:41.050Z,9.77
2023-03-16T13:27:23.283Z,10.20
2023-03-16T13:29:59.087Z,10.50
2023-03-16T13:32:33.503Z,10.60
2023-03-16T13:35:03.630Z,10.67
2023-03-16T13:37:32.496Z,10.77
2023-03-16T13:40:04.488Z,10.70
2023-03-16T13:42:34.700Z,10.71
2023-03-16T13:45:15.700Z,10.70
2023-03-16T13:47:46.062Z,10.75
2023-03-16T13:50:16.393Z,10.58
2023-03-16T13:52:54.372Z,10.62
2023-03-16T13:55:31.349Z,10.63
2023-03-16T13:58:01.770Z,10.39
2023-03-16T14:00:36.845Z,10.00
2023-03-16T14:03:17.734Z,10.12
2023-03-16T14:05:47.557Z,9.85
2023-03-16T14:08:18.513Z,9.64
2023-03-16T14:10:47.633Z,9.75
2023-03-16T14:13:34.117Z,9.97
2023-03-16T14:16:11.956Z,9.88
2023-03-16T14:18:43.978Z,9.94
2023-03-16T14:21:17.735Z,9.85
2023-03-16T14:23:48.274Z,9.54
2023-03-16T14:26:19.810Z,9.60
2023-03-16T14:29:02.960Z,9.48
2023-03-16T14:31:39.824Z,9.53
2023-03-16T14:34:22.466Z,9.61
2023-03-16T14:36:51.193Z,9.60
2023-03-16T14:39:22.834Z,9.61
2023-03-16T14:41:53.094Z,9.71
2023-03-16T14:44:24.818Z,9.73
2023-03-16T14:46:57.058Z,9.68
2023-03-16T14:49:29.786Z,9.54
2023-03-16T14:52:03.359Z,9.71
2023-03-16T14:54:32.438Z,9.65
2023-03-16T14:57:03.864Z,9.71
2023-03-16T14:59:32.449Z,9.60
2023-03-16T15:02:04.287Z,9.81
2023-03-16T15:04:36.267Z,9.96
2023-03-16T15:07:22.784Z,9.97
2023-03-16T15:09:53.748Z,9.95
2023-03-16T15:12:25.097Z,10.01
2023-03-16T15:15:11.400Z,10.17
2023-03-16T15:17:41.184Z,10.34
2023-03-16T15:20:12.236Z,10.18
2023-03-16T15:22:41.880Z,10.14
2023-03-16T15:25:24.764Z,10.19
2023-03-16T15:27:54.330Z,10.24
2023-03-16T15:30:26.792Z,10.22
2023-03-16T15:32:56.693Z,10.20
2023-03-16T15:35:25.122Z,10.06
2023-03-16T15:37:54.106Z,10.07
2023-03-16T15:40:26.012Z,10.00
2023-03-16T15:42:54.705Z,10.06
2023-03-16T15:45:24.678Z,9.99
2023-03-16T15:47:55.231Z,9.96
2023-03-16T15:50:25.902Z,10.05
2023-03-16T15:52:58.217Z,9.98
2023-03-16T15:55:34.491Z,10.12
2023-03-16T15:58:03.789Z,10.19
2023-03-16T16:00:35.166Z,10.01
2023-03-16T16:03:06.565Z,10.09
2023-03-16T16:05:36.748Z,10.10
2023-03-16T16:08:05.661Z,10.08
2023-03-16T16:10:35.305Z,10.12
2023-03-16T16:13:04.184Z,10.10
2023-03-16T16:15:36.988Z,10.04
2023-03-16T16:18:27.819Z,10.00
2023-03-16T16:20:58.145Z,9.97
2023-03-16T16:23:27.408Z,10.00
2023-03-16T16:25:58.554Z,9.95
2023-03-16T16:28:30.864Z,9.89
2023-03-16T16:31:01.961Z,9.84
2023-03-16T16:33:33.242Z,9.89
2023-03-16T16:36:05.411Z,9.86
2023-03-16T16:38:34.317Z,9.80
2023-03-16T16:41:06.856Z,9.74
2023-03-16T16:43:41.272Z,9.78
2023-03-16T16:46:16.539Z,9.73
2023-03-16T16:48:48.168Z,9.67
2023-03-16T16:51:20.301Z,9.64
2023-03-16T16:53:49.294Z,9.61
2023-03-16T16:56:19.805Z,9.59
2023-03-16T16:58:48.339Z,9.61
2023-03-16T17:01:23.642Z,9.61
2023-03-16T17:03:52.442Z,9.56
2023-03-16T17:06:22.524Z,9.55
2023-03-16T17:08:52.389Z,9.51
2023-03-16T17:11:24.940Z,9.47
2023-03-16T17:13:55.385Z,9.45
2023-03-16T17:16:25.810Z,9.39
2023-03-16T17:18:55.307Z,9.37
2023-03-16T17:21:29.931Z,9.31
2023-03-16T17:24:00.349Z,9.28
2023-03-16T17:26:32.921Z,9.22
2023-03-16T17:29:04.059Z,9.20
2023-03-16T17:31:36.663Z,9.17
2023-03-16T17:34:16.828Z,9.14
2023-03-16T17:36:46.837Z,9.12
2023-03-16T17:39:21.007Z,9.08
2023-03-16T17:41:52.550Z,9.03
2023-03-16T17:44:21.733Z,9.02
2023-03-16T17:46:50.242Z,8.96
2023-03-16T17:49:20.020Z,8.95
2023-03-16T17:51:49.764Z,8.93
2023-03-16T17:54:18.722Z,8.89
2023-03-16T17:56:48.087Z,8.85
2023-03-16T17:59:19.295Z,8.80
2023-03-16T18:01:48.966Z,8.80
2023-03-16T18:04:19.051Z,8.77
2023-03-16T18:06:48.133Z,8.78
2023-03-16T18:09:19.827Z,8.74
2023-03-16T18:11:50.973Z,8.64
2023-03-16T18:14:34.910Z,8.65
2023-03-16T18:17:04.179Z,8.59
2023-03-16T18:19:33.736Z,8.56
2023-03-16T18:22:02.061Z,8.52
2023-03-16T18:24:31.882Z,8.54
2023-03-16T18:27:00.431Z,8.52
2023-03-16T18:29:28.811Z,8.48
2023-03-16T18:31:58.288Z,8.56
2023-03-16T18:34:33.620Z,8.56
2023-03-16T18:37:06.194Z,8.50
2023-03-16T18:39:36.039Z,8.45
2023-03-16T18:42:04.752Z,8.40
2023-03-16T18:44:33.726Z,8.39
2023-03-16T18:47:04.438Z,8.36
2023-03-16T18:49:35.870Z,8.32
2023-03-16T18:52:07.263Z,8.30
2023-03-16T18:54:39.064Z,8.28
2023-03-16T18:57:16.477Z,8.28
2023-03-16T18:59:44.838Z,8.21
2023-03-16T19:02:29.544Z,8.19
2023-03-16T19:05:01.785Z,8.17
2023-03-16T19:07:35.945Z,8.12
2023-03-16T19:10:20.298Z,8.09
2023-03-16T19:12:48.880Z,8.11
2023-03-16T19:15:21.160Z,8.15
2023-03-16T19:17:50.327Z,8.07
2023-03-16T19:20:22.197Z,8.02
2023-03-16T19:22:52.154Z,8.00
2023-03-16T19:25:29.142Z,8.03
2023-03-16T19:27:58.334Z,8.00
2023-03-16T19:30:28.656Z,7.96
2023-03-16T19:32:59.140Z,7.95
2023-03-16T19:35:48.454Z,7.90
2023-03-16T19:38:19.347Z,7.87
2023-03-16T19:40:50.835Z,7.87
2023-03-16T19:43:21.333Z,7.85
2023-03-16T19:45:50.166Z,7.82
2023-03-16T19:48:22.730Z,7.83
2023-03-16T19:50:52.176Z,7.80
2023-03-16T19:53:22.476Z,7.77
2023-03-16T19:55:54.655Z,7.74
2023-03-16T19:58:32.125Z,7.75
2023-03-16T20:01:02.182Z,7.72
2023-03-16T20:03:34.174Z,7.70
2023-03-16T20:06:02.531Z,7.70
2023-03-16T20:08:31.140Z,7.64
2023-03-16T20:11:04.508Z,7.61
2023-03-16T20:13:33.477Z,7.61
2023-03-16T20:16:02.133Z,7.59
2023-03-16T20:18:30.626Z,7.57
2023-03-16T20:20:59.276Z,7.57
2023-03-16T20:23:30.227Z,7.56
2023-03-16T20:26:03.017Z,7.49
2023-03-16T20:28:36.841Z,7.51
2023-03-16T20:31:08.438Z,7.43
2023-03-16T20:33:37.139Z,7.47
2023-03-16T20:36:06.985Z,7.49
2023-03-16T20:38:35.473Z,7.39
2023-03-16T20:41:13.255Z,7.37
2023-03-16T20:43:41.823Z,7.36
2023-03-16T20:46:18.682Z,7.35
2023-03-16T20:48:47.315Z,7.32
2023-03-16T20:51:17.233Z,7.32
2023-03-16T20:53:46.657Z,7.30
2023-03-16T20:56:18.266Z,7.32
2023-03-16T20:58:48.081Z,7.28
2023-03-16T21:01:20.939Z,7.26
2023-03-16T21:03:52.169Z,7.25
2023-03-16T21:06:25.897Z,7.14
2023-03-16T21:08:56.825Z,7.15
2023-03-16T21:11:30.836Z,7.16
2023-03-16T21:13:59.411Z,7.11
2023-03-16T21:16:28.041Z,7.12
2023-03-16T21:18:56.586Z,7.05
2023-03-16T21:21:25.474Z,7.09
2023-03-16T21:23:54.160Z,7.03
2023-03-16T21:26:27.144Z,7.06
2023-03-16T21:28:58.933Z,7.07
2023-03-16T21:31:28.254Z,7.00
2023-03-16T21:33:57.603Z,7.05
2023-03-16T21:36:27.323Z,6.96
2023-03-16T21:38:57.735Z,7.00
2023-03-16T21:41:27.695Z,6.94
2023-03-16T21:43:56.248Z,6.96
2023-03-16T21:46:26.474Z,6.95
2023-03-16T21:48:56.930Z,6.94
2023-03-16T21:51:31.282Z,6.90
2023-03-16T21:54:01.664Z,6.89
2023-03-16T21:56:31.589Z,6.88
2023-03-16T21:59:00.741Z,6.89
2023-03-16T22:01:32.357Z,6.85
2023-03-16T22:04:06.613Z,6.83
2023-03-16T22:06:35.285Z,6.81
2023-03-16T22:09:04.378Z,6.79
2023-03-16T22:11:34.434Z,6.77
2023-03-16T22:14:02.973Z,6.75
2023-03-16T22:16:36.079Z,6.72
2023-03-16T22:19:06.010Z,6.73
2023-03-16T22:21:37.510Z,6.74
2023-03-16T22:24:08.455Z,6.70
2023-03-16T22:26:38.459Z,6.67
2023-03-16T22:29:23.378Z,6.66
2023-03-16T22:31:55.394Z,6.63
2023-03-16T22:34:32.209Z,6.65
2023-03-16T22:37:01.933Z,6.63
2023-03-16T22:39:39.647Z,6.64
2023-03-16T22:42:28.472Z,6.59
2023-03-16T22:44:57.433Z,6.58
2023-03-16T22:47:28.231Z,6.52
2023-03-16T22:49:56.979Z,6.56
2023-03-16T22:52:30.322Z,6.54
2023-03-16T22:54:59.500Z,6.51
2023-03-16T22:57:30.491Z,6.55
2023-03-16T23:00:00.714Z,6.51
2023-03-16T23:02:30.583Z,6.51
2023-03-16T23:04:59.103Z,6.50
2023-03-16T23:07:27.591Z,6.49
2023-03-16T23:09:56.022Z,6.45
2023-03-16T23:12:24.381Z,6.48
2023-03-16T23:14:54.189Z,6.45
2023-03-16T23:17:23.795Z,6.92
2023-03-16T23:19:52.610Z,7.06
2023-03-16T23:22:21.029Z,6.70
2023-03-16T23:24:49.393Z,6.55
2023-03-16T23:27:21.406Z,6.51
2023-03-16T23:29:50.228Z,6.47
2023-03-16T23:32:20.056Z,6.45
2023-03-16T23:34:48.484Z,6.44
2023-03-16T23:37:17.477Z,6.34
2023-03-16T23:39:45.905Z,6.38
2023-03-16T23:42:14.307Z,6.40
2023-03-16T23:44:43.514Z,6.38
2023-03-16T23:47:12.624Z,6.38
2023-03-16T23:49:43.757Z,6.33
2023-03-16T23:52:14.594Z,6.40
2023-03-16T23:54:43.374Z,6.37
2023-03-16T23:57:12.148Z,6.35
2023-03-16T23:59:40.523Z,6.34
